»·PEaware :: AUZ081 KSFO-PHNL

AUZ081 :: KSFO-PHNL

FLIGHT INFORMATION

Flight Status: Arrived
Operator:
Australian Airlines
More flights by this operator :: More flights under this callsign
Pilot: Kim E. (65)
Aircraft: BOEING 777-200
(B772)
More flights by this aircraft type
Origin: KSFO San Francisco Intl
United States
Destination: PHNL Honolulu Intl
United States
More flights between these airports :: More routes between these airports
Route: GAPP5 BRINY BEBOP R464 MAGGI3 BITTA
File this flight plan on PilotEdge
Remarks: / V /
Altitude:
(Current/Filed)
36,000ft
Speed:
(Current/Filed)
520kts
Departed: 21-Sep-13 11:34 AM
Arrived: 21-Sep-13 01:38 PM
Distance/Time
Traveled:
2081nm/2:04
Distance/Time
To Go:
Arrived

Flight Plot

Page will automatically refresh every two minutes.


Map Options




Map Legend


Flown Route
Filed Route
Departure Airport
Arrival Airport
Navaid (VOR, NDB)
Fix

Horizontal Profiles

Position Reports

Time Latitude Longitude Heading Altitude Ground
Speed
21-Sep-13 11:31 31.737133 -140.028575 243 39155ft 428kts
21-Sep-13 11:32 31.682530 -140.153730 243 40097ft 425kts
21-Sep-13 11:33 31.629404 -140.275095 243 40100ft 421kts
21-Sep-13 11:34 31.575533 -140.397751 243 40100ft 423kts
21-Sep-13 11:35 31.521732 -140.519846 243 40099ft 421kts
21-Sep-13 11:36 31.467503 -140.642504 243 40100ft 422kts
21-Sep-13 11:37 31.413236 -140.764845 243 40099ft 422kts
21-Sep-13 11:38 31.358900 -140.886945 243 40099ft 421kts
21-Sep-13 11:39 31.305138 -141.007977 243 40099ft 421kts
21-Sep-13 11:40 31.250694 -141.129341 243 40099ft 420kts
21-Sep-13 11:41 31.196167 -141.250340 243 40099ft 420kts
21-Sep-13 11:42 31.141280 -141.371703 242 40099ft 420kts
21-Sep-13 11:43 31.086460 -141.492112 242 40100ft 421kts
21-Sep-13 11:44 31.031469 -141.612470 242 40099ft 422kts
21-Sep-13 11:45 30.976333 -141.734254 242 40100ft 422kts
21-Sep-13 11:46 30.922133 -141.853215 242 40100ft 423kts
21-Sep-13 11:47 30.866655 -141.974252 242 40099ft 423kts
21-Sep-13 11:48 30.810458 -142.096396 242 40100ft 422kts
21-Sep-13 11:49 30.754872 -142.216814 242 40099ft 421kts
21-Sep-13 11:50 30.708597 -142.316770 242 40100ft 421kts
21-Sep-13 11:51 30.643463 -142.457142 239 40098ft 433kts
21-Sep-13 11:52 30.594352 -142.562408 240 40095ft 458kts
21-Sep-13 11:53 30.531373 -142.697183 240 40096ft 484kts
21-Sep-13 11:54 30.467468 -142.833416 240 40094ft 480kts
21-Sep-13 11:55 30.403695 -142.968925 240 40094ft 480kts
21-Sep-13 11:56 30.339260 -143.105351 240 40094ft 480kts
21-Sep-13 11:57 30.274705 -143.241550 240 40094ft 480kts
21-Sep-13 11:58 30.210532 -143.376473 240 40094ft 481kts
21-Sep-13 11:59 30.145790 -143.512122 240 40094ft 481kts
21-Sep-13 12:09 29.489433 -144.861622 239 40094ft 486kts
21-Sep-13 12:10 29.422526 -144.996657 239 40094ft 486kts
21-Sep-13 12:11 29.354736 -145.133012 239 40094ft 486kts
21-Sep-13 12:12 29.287681 -145.267439 239 40094ft 486kts
21-Sep-13 12:13 29.220468 -145.401735 239 40094ft 486kts
21-Sep-13 12:14 29.152844 -145.536406 239 40094ft 486kts
21-Sep-13 12:15 29.085245 -145.670585 239 40094ft 486kts
21-Sep-13 12:16 29.017698 -145.804221 239 40094ft 486kts
21-Sep-13 12:17 28.949880 -145.937957 239 40094ft 486kts
21-Sep-13 12:18 28.882010 -146.071358 239 40094ft 486kts
21-Sep-13 12:19 28.813732 -146.205130 239 40094ft 486kts
21-Sep-13 12:20 28.745805 -146.337783 239 40094ft 486kts
21-Sep-13 12:21 28.677425 -146.470892 239 40094ft 486kts
21-Sep-13 12:22 28.609077 -146.603516 238 40094ft 486kts
21-Sep-13 12:23 28.540177 -146.736786 238 40094ft 486kts
21-Sep-13 12:24 28.471822 -146.868582 238 40094ft 486kts
21-Sep-13 12:25 28.402320 -147.002164 238 40094ft 486kts
21-Sep-13 12:26 28.333677 -147.133680 238 40094ft 486kts
21-Sep-13 12:27 28.264411 -147.265977 238 40094ft 486kts
21-Sep-13 12:28 28.195348 -147.397476 238 40094ft 486kts
21-Sep-13 12:29 28.125836 -147.529420 238 40094ft 486kts
21-Sep-13 12:30 28.056302 -147.661047 238 40094ft 486kts
21-Sep-13 12:31 27.986837 -147.792443 238 40094ft 486kts
21-Sep-13 12:32 27.916890 -147.923682 238 40094ft 486kts
21-Sep-13 12:33 27.846906 -148.054564 238 40094ft 486kts
21-Sep-13 12:34 27.776790 -148.185006 238 40093ft 486kts
21-Sep-13 12:35 27.706564 -148.315365 238 40094ft 486kts
21-Sep-13 12:36 27.636141 -148.447017 238 40093ft 486kts
21-Sep-13 12:37 27.566708 -148.575701 238 40094ft 486kts
21-Sep-13 12:38 27.496764 -148.704829 238 40093ft 486kts
21-Sep-13 12:39 27.425349 -148.836259 237 40093ft 486kts
21-Sep-13 12:40 27.354737 -148.965815 237 40094ft 486kts
21-Sep-13 12:41 27.284290 -149.094714 236 40060ft 476kts
21-Sep-13 12:42 27.215587 -149.219986 237 40086ft 476kts
21-Sep-13 12:43 27.144786 -149.348809 236 40058ft 481kts
21-Sep-13 12:44 27.075387 -149.474643 236 40063ft 473kts
21-Sep-13 12:45 27.016702 -149.580801 236 40062ft 484kts
21-Sep-13 12:46 26.782871 -150.001280 236 40025ft 481kts
21-Sep-13 12:47 26.301382 -150.854831 237 40143ft 485kts
21-Sep-13 12:48 25.717828 -151.868238 236 40123ft 486kts
21-Sep-13 12:49 24.816110 -153.392262 236 40091ft 486kts
21-Sep-13 12:50 23.916429 -154.860149 235 39952ft 458kts
21-Sep-13 12:51 23.847768 -154.970486 235 40078ft 436kts
21-Sep-13 12:52 23.779386 -155.079691 235 40137ft 439kts
21-Sep-13 12:53 23.710215 -155.189831 235 40134ft 439kts
21-Sep-13 12:54 23.641367 -155.299482 235 40131ft 438kts
21-Sep-13 12:55 23.581749 -155.393808 235 40136ft 437kts
21-Sep-13 12:57 23.462495 -155.545126 222 40136ft 439kts
21-Sep-13 12:58 23.370910 -155.632967 222 40132ft 438kts
21-Sep-13 12:59 23.279701 -155.721736 223 40138ft 440kts
21-Sep-13 13:00 23.188916 -155.810723 223 40136ft 440kts
21-Sep-13 13:01 23.097404 -155.900041 223 40137ft 441kts
21-Sep-13 13:02 23.005952 -155.989038 223 40135ft 442kts
21-Sep-13 13:03 22.914150 -156.078215 222 40133ft 440kts
21-Sep-13 13:04 22.822031 -156.167529 222 40138ft 439kts
21-Sep-13 13:05 22.731102 -156.255514 222 40137ft 439kts
21-Sep-13 13:06 22.639050 -156.344420 222 39912ft 440kts
21-Sep-13 13:07 22.548430 -156.431812 222 39414ft 441kts
21-Sep-13 13:08 22.457030 -156.519757 222 36957ft 438kts
21-Sep-13 13:09 22.366611 -156.606614 222 35120ft 426kts
21-Sep-13 13:10 22.278912 -156.690704 222 33356ft 417kts
21-Sep-13 13:11 22.193266 -156.772687 221 31703ft 406kts
21-Sep-13 13:12 22.109375 -156.852854 221 30065ft 395kts
21-Sep-13 13:13 22.027521 -156.930953 221 28281ft 390kts
21-Sep-13 13:14 21.946449 -157.008179 220 26470ft 385kts
21-Sep-13 13:15 21.866164 -157.084530 219 24655ft 382kts
21-Sep-13 13:16 21.787068 -157.159637 219 22856ft 379kts
21-Sep-13 13:17 21.707774 -157.234820 219 21046ft 376kts
21-Sep-13 13:18 21.629309 -157.309263 219 19231ft 374kts
21-Sep-13 13:19 21.551259 -157.383032 219 17404ft 373kts
21-Sep-13 13:20 21.473505 -157.456334 220 15619ft 370kts
21-Sep-13 13:21 21.409101 -157.540158 241 13890ft 366kts
21-Sep-13 13:22 21.367463 -157.638000 247 12270ft 359kts
21-Sep-13 13:23 21.329845 -157.738187 246 10422ft 363kts
21-Sep-13 13:24 21.293655 -157.831934 246 9730ft 328kts
21-Sep-13 13:25 21.260205 -157.919219 246 9020ft 288kts
21-Sep-13 13:26 21.230148 -157.997651 246 7566ft 283kts
21-Sep-13 13:27 21.204029 -158.077047 256 6360ft 272kts
21-Sep-13 13:28 21.213013 -158.147749 317 5496ft 236kts
21-Sep-13 13:29 21.265328 -158.178545 17 4667ft 213kts
21-Sep-13 13:30 21.316113 -158.148759 58 3682ft 178kts
21-Sep-13 13:31 21.324942 -158.101792 88 2815ft 161kts
21-Sep-13 13:32 21.325241 -158.057944 92 2078ft 145kts
21-Sep-13 13:33 21.325244 -158.014230 91 1304ft 139kts
21-Sep-13 13:34 21.324944 -157.973447 83 484ft 149kts
21-Sep-13 13:35 21.324972 -157.928368 83 27ft 112kts
21-Sep-13 13:36 21.326132 -157.919556 28 26ft 0kts
21-Sep-13 13:37 21.326134 -157.919555 28 26ft 0kts
21-Sep-13 13:38 21.326928 -157.919153 7 26ft 4kts
21-Sep-13 13:39 21.328479 -157.918920 21 26ft 7kts
21-Sep-13 13:40 21.329682 -157.918588 9 26ft 1kts
21-Sep-13 13:41 21.330192 -157.918175 86 26ft 3kts
21-Sep-13 13:42 21.330158 -157.917652 97 26ft 0kts
21-Sep-13 13:43 21.330158 -157.917649 97 26ft 0kts

Navigation Log

Ident Type
1. KSFO Airport
2. BRINY Fix
3. BEBOP Fix
4. BITTA Fix
5. PHNL Airport